createdAt,value
2023-05-12T00:00:22.834Z,6.34
2023-05-12T00:02:50.022Z,6.37
2023-05-12T00:05:17.232Z,6.38
2023-05-12T00:07:44.363Z,6.31
2023-05-12T00:10:11.773Z,6.31
2023-05-12T00:12:38.857Z,6.29
2023-05-12T00:15:06.589Z,6.30
2023-05-12T00:17:33.830Z,6.34
2023-05-12T00:20:01.519Z,6.33
2023-05-12T00:22:28.675Z,6.29
2023-05-12T00:24:55.759Z,6.26
2023-05-12T00:27:23.025Z,6.23
2023-05-12T00:29:50.184Z,6.23
2023-05-12T00:32:17.431Z,6.24
2023-05-12T00:34:44.494Z,6.23
2023-05-12T00:37:11.605Z,6.23
2023-05-12T00:39:38.716Z,6.24
2023-05-12T00:42:06.053Z,6.25
2023-05-12T00:44:33.357Z,6.20
2023-05-12T00:47:00.732Z,6.22
2023-05-12T00:49:28.074Z,6.22
2023-05-12T00:51:56.262Z,6.22
2023-05-12T00:54:23.499Z,6.20
2023-05-12T00:56:50.753Z,6.17
2023-05-12T00:59:19.129Z,6.16
2023-05-12T01:01:49.918Z,6.14
2023-05-12T01:04:17.446Z,6.11
2023-05-12T01:06:56.843Z,6.07
2023-05-12T01:09:24.260Z,6.09
2023-05-12T01:11:52.384Z,6.08
2023-05-12T01:14:20.042Z,6.04
2023-05-12T01:16:53.674Z,6.05
2023-05-12T01:19:48.436Z,6.07
2023-05-12T01:22:17.403Z,6.07
2023-05-12T01:24:54.391Z,6.10
2023-05-12T01:27:23.797Z,6.10
2023-05-12T01:29:52.360Z,6.12
2023-05-12T01:32:20.615Z,6.13
2023-05-12T01:34:47.890Z,6.14
2023-05-12T01:37:16.018Z,6.14
2023-05-12T01:39:43.238Z,6.16
2023-05-12T01:42:15.918Z,6.20
2023-05-12T01:44:43.314Z,6.17
2023-05-12T01:47:11.476Z,6.16
2023-05-12T01:49:40.576Z,6.15
2023-05-12T01:52:14.025Z,6.15
2023-05-12T01:54:41.293Z,6.19
2023-05-12T01:57:08.660Z,6.19
2023-05-12T01:59:37.512Z,6.17
2023-05-12T02:02:06.367Z,6.15
2023-05-12T02:04:34.783Z,6.13
2023-05-12T02:07:02.296Z,6.15
2023-05-12T02:09:30.030Z,6.16
2023-05-12T02:12:02.576Z,6.12
2023-05-12T02:14:30.456Z,6.14
2023-05-12T02:16:59.120Z,6.14
2023-05-12T02:19:26.374Z,6.11
2023-05-12T02:21:54.363Z,6.10
2023-05-12T02:24:21.943Z,6.11
2023-05-12T02:26:49.425Z,6.10
2023-05-12T02:29:16.586Z,6.10
2023-05-12T02:31:43.812Z,6.09
2023-05-12T02:34:17.675Z,6.17
2023-05-12T02:36:44.737Z,6.20
2023-05-12T02:39:12.442Z,6.21
2023-05-12T02:41:40.063Z,6.18
2023-05-12T02:44:07.522Z,6.19
2023-05-12T02:46:35.086Z,6.17
2023-05-12T02:49:02.261Z,6.18
2023-05-12T02:51:29.597Z,6.20
2023-05-12T02:53:56.758Z,6.19
2023-05-12T02:56:23.892Z,6.17
2023-05-12T02:58:51.082Z,6.20
2023-05-12T03:01:18.242Z,6.24
2023-05-12T03:03:45.645Z,6.25
2023-05-12T03:06:12.934Z,6.28
2023-05-12T03:08:40.167Z,6.27
2023-05-12T03:11:07.352Z,6.26
2023-05-12T03:13:34.435Z,6.29
2023-05-12T03:16:01.896Z,6.30
2023-05-12T03:18:30.422Z,6.34
2023-05-12T03:20:57.627Z,6.35
2023-05-12T03:23:25.209Z,6.38
2023-05-12T03:25:52.416Z,6.40
2023-05-12T03:28:19.588Z,6.43
2023-05-12T03:30:46.697Z,6.45
2023-05-12T03:33:13.865Z,6.53
2023-05-12T03:35:40.978Z,6.55
2023-05-12T03:38:08.140Z,6.60
2023-05-12T03:40:35.359Z,6.70
2023-05-12T03:43:02.975Z,6.76
2023-05-12T03:45:30.150Z,6.85
2023-05-12T03:47:57.231Z,6.92
2023-05-12T03:50:24.444Z,6.96
2023-05-12T03:52:56.157Z,7.02
2023-05-12T03:55:23.328Z,7.09
2023-05-12T03:57:50.404Z,7.13
2023-05-12T04:00:18.227Z,7.14
2023-05-12T04:02:46.620Z,7.17
2023-05-12T04:05:14.809Z,7.23
2023-05-12T04:07:42.336Z,7.26
2023-05-12T04:10:09.631Z,7.34
2023-05-12T04:12:36.707Z,7.41
2023-05-12T04:15:04.351Z,7.43
2023-05-12T04:17:31.585Z,7.51
2023-05-12T04:19:58.715Z,7.56
2023-05-12T04:22:26.066Z,7.64
2023-05-12T04:24:54.021Z,7.71
2023-05-12T04:27:21.812Z,7.76
2023-05-12T04:29:49.029Z,7.80
2023-05-12T04:32:16.337Z,7.80
2023-05-12T04:34:43.621Z,7.88
2023-05-12T04:37:10.860Z,7.92
2023-05-12T04:39:38.036Z,8.01
2023-05-12T04:42:06.040Z,8.12
2023-05-12T04:44:34.675Z,8.12
2023-05-12T04:47:01.899Z,8.22
2023-05-12T04:49:30.662Z,8.36
2023-05-12T04:51:57.856Z,8.38
2023-05-12T04:54:25.068Z,8.37
2023-05-12T04:56:52.532Z,8.51
2023-05-12T04:59:19.823Z,8.66
2023-05-12T05:01:49.398Z,8.74
2023-05-12T05:04:17.132Z,8.76
2023-05-12T05:06:44.211Z,8.75
2023-05-12T05:09:11.392Z,8.82
2023-05-12T05:11:39.031Z,8.97
2023-05-12T05:14:06.829Z,8.91
2023-05-12T05:16:38.081Z,9.09
2023-05-12T05:19:06.722Z,9.09
2023-05-12T05:21:39.643Z,9.28
2023-05-12T05:24:09.078Z,9.31
2023-05-12T05:26:36.573Z,9.46
2023-05-12T05:29:05.294Z,9.45
2023-05-12T05:31:33.319Z,9.57
2023-05-12T05:34:00.556Z,9.81
2023-05-12T05:36:29.971Z,9.90
2023-05-12T05:38:58.558Z,9.88
2023-05-12T05:41:25.855Z,10.08
2023-05-12T05:43:53.185Z,10.24
2023-05-12T05:46:20.320Z,10.18
2023-05-12T05:48:48.602Z,10.17
2023-05-12T05:51:16.646Z,10.33
2023-05-12T05:53:44.013Z,10.38
2023-05-12T05:56:12.022Z,10.44
2023-05-12T05:58:39.166Z,10.49
2023-05-12T06:01:07.485Z,10.69
2023-05-12T06:03:35.553Z,10.86
2023-05-12T06:06:03.042Z,10.85
2023-05-12T06:08:30.289Z,10.80
2023-05-12T06:10:57.501Z,10.94
2023-05-12T06:13:24.570Z,11.19
2023-05-12T06:15:51.661Z,11.66
2023-05-12T06:18:18.751Z,11.41
2023-05-12T06:20:46.223Z,11.41
2023-05-12T06:23:13.490Z,11.65
2023-05-12T06:25:40.743Z,11.60
2023-05-12T06:28:08.691Z,11.89
2023-05-12T06:30:40.618Z,12.01
2023-05-12T06:33:07.752Z,12.53
2023-05-12T06:35:34.873Z,12.82
2023-05-12T06:38:05.958Z,12.20
2023-05-12T06:40:33.531Z,12.57
2023-05-12T06:43:00.778Z,12.97
2023-05-12T06:45:28.000Z,12.34
2023-05-12T06:47:55.223Z,12.36
2023-05-12T06:50:22.349Z,12.40
2023-05-12T06:52:52.666Z,12.70
2023-05-12T06:55:21.174Z,12.44
2023-05-12T06:57:48.661Z,12.57
2023-05-12T07:00:16.234Z,13.19
2023-05-12T07:02:43.459Z,13.46
2023-05-12T07:05:10.595Z,13.34
2023-05-12T07:07:37.766Z,13.20
2023-05-12T07:10:06.673Z,13.35
2023-05-12T07:12:33.897Z,13.85
2023-05-12T07:15:03.282Z,13.24
2023-05-12T07:17:30.595Z,13.25
2023-05-12T07:19:57.861Z,13.67
2023-05-12T07:22:25.180Z,13.91
2023-05-12T07:24:52.918Z,14.05
2023-05-12T07:27:20.230Z,13.67
2023-05-12T07:29:47.336Z,13.96
2023-05-12T07:32:14.403Z,13.88
2023-05-12T07:34:41.460Z,14.02
2023-05-12T07:37:08.494Z,14.25
2023-05-12T07:39:37.935Z,13.82
2023-05-12T07:42:05.486Z,14.06
2023-05-12T07:44:33.645Z,14.24
2023-05-12T07:47:01.331Z,14.77
2023-05-12T07:49:28.495Z,14.84
2023-05-12T07:51:56.331Z,14.46
2023-05-12T07:54:23.498Z,14.71
2023-05-12T07:56:50.785Z,14.58
2023-05-12T07:59:17.909Z,15.13
2023-05-12T08:01:45.086Z,14.58
2023-05-12T08:04:12.396Z,14.96
2023-05-12T08:06:39.970Z,15.07
2023-05-12T08:09:07.187Z,15.18
2023-05-12T08:11:34.263Z,15.34
2023-05-12T08:14:01.594Z,14.87
2023-05-12T08:16:28.784Z,15.27
2023-05-12T08:18:56.112Z,15.22
2023-05-12T08:21:23.230Z,15.16
2023-05-12T08:23:50.393Z,15.35
2023-05-12T08:26:17.690Z,14.73
2023-05-12T08:28:44.984Z,15.16
2023-05-12T08:31:12.741Z,14.75
2023-05-12T08:33:40.032Z,14.96
2023-05-12T08:36:07.348Z,15.70
2023-05-12T08:38:34.545Z,15.14
2023-05-12T08:41:01.511Z,14.72
2023-05-12T08:43:38.567Z,14.57
2023-05-12T08:46:06.473Z,15.34
2023-05-12T08:48:35.719Z,15.48
2023-05-12T08:51:03.477Z,15.85
2023-05-12T08:53:33.688Z,14.80
2023-05-12T08:58:40.817Z,15.45
2023-05-12T09:01:12.366Z,14.73
2023-05-12T09:03:39.631Z,14.39
2023-05-12T09:06:07.554Z,14.73
2023-05-12T09:08:37.698Z,14.98
2023-05-12T09:11:05.110Z,14.24
2023-05-12T09:14:00.639Z,14.46
2023-05-12T09:16:31.423Z,14.71
2023-05-12T09:19:00.225Z,15.15
2023-05-12T09:21:28.714Z,15.30
2023-05-12T09:23:59.626Z,15.30
2023-05-12T09:26:29.028Z,14.87
2023-05-12T09:29:08.875Z,14.71
2023-05-12T09:31:36.315Z,15.16
2023-05-12T09:34:08.956Z,15.38
2023-05-12T09:36:36.855Z,15.30
2023-05-12T09:39:07.266Z,15.52
2023-05-12T09:41:38.976Z,15.80
2023-05-12T09:44:07.935Z,15.86
2023-05-12T10:18:05.886Z,15.18
2023-05-12T10:20:34.067Z,15.47
2023-05-12T10:23:02.285Z,15.60
2023-05-12T10:25:31.037Z,16.01
2023-05-12T10:27:59.288Z,15.50
2023-05-12T10:30:26.827Z,15.72
2023-05-12T10:32:54.484Z,15.43
2023-05-12T10:35:35.311Z,15.32
2023-05-12T10:38:16.308Z,15.18
2023-05-12T10:40:59.446Z,14.99
2023-05-12T10:43:29.532Z,15.00
2023-05-12T10:46:15.446Z,15.48
2023-05-12T10:49:12.576Z,15.27
2023-05-12T10:51:46.015Z,15.13
2023-05-12T10:54:20.164Z,15.35
2023-05-12T10:56:48.347Z,15.24
2023-05-12T10:59:24.465Z,15.39
2023-05-12T11:02:04.936Z,15.36
2023-05-12T11:04:53.462Z,15.51
2023-05-12T11:07:33.393Z,15.95
2023-05-12T11:10:02.972Z,15.37
2023-05-12T11:12:34.182Z,15.83
2023-05-12T11:15:03.450Z,16.01
2023-05-12T11:17:30.990Z,16.45
2023-05-12T11:19:58.838Z,15.91
2023-05-12T11:22:26.019Z,15.88
2023-05-12T11:24:53.386Z,16.21
2023-05-12T11:27:23.311Z,16.32
2023-05-12T11:29:59.142Z,16.26
2023-05-12T11:32:26.770Z,15.37
2023-05-12T11:34:54.115Z,15.82
2023-05-12T11:37:22.237Z,16.34
2023-05-12T11:39:49.361Z,16.43
2023-05-12T11:42:19.804Z,16.35
2023-05-12T11:44:49.452Z,16.36
2023-05-12T11:47:19.270Z,15.40
2023-05-12T11:49:52.897Z,15.86
2023-05-12T11:52:21.880Z,16.05
2023-05-12T11:54:58.877Z,16.04
2023-05-12T11:57:30.604Z,16.16
2023-05-12T11:59:58.925Z,15.98
2023-05-12T12:02:26.784Z,15.69
2023-05-12T12:04:54.381Z,16.13
2023-05-12T12:07:35.498Z,16.62
2023-05-12T12:10:13.170Z,16.53
2023-05-12T12:12:43.718Z,16.57
2023-05-12T12:15:11.843Z,16.80
2023-05-12T12:17:40.124Z,16.57
2023-05-12T12:20:09.414Z,16.87
2023-05-12T12:22:36.695Z,16.59
2023-05-12T12:25:04.203Z,16.69
2023-05-12T12:27:31.498Z,16.90
2023-05-12T12:29:58.700Z,16.38
2023-05-12T12:32:25.902Z,15.38
2023-05-12T12:34:53.558Z,16.50
2023-05-12T12:37:20.659Z,16.21
2023-05-12T12:39:48.074Z,16.87
2023-05-12T12:42:15.851Z,16.95
2023-05-12T12:44:43.310Z,17.51
2023-05-12T12:47:10.593Z,17.92
2023-05-12T12:49:37.826Z,17.41
2023-05-12T12:52:05.138Z,17.46
2023-05-12T12:54:32.747Z,16.99
2023-05-12T12:56:59.823Z,17.23
2023-05-12T12:59:27.341Z,15.90
2023-05-12T13:01:54.592Z,15.60
2023-05-12T13:04:23.129Z,16.23
2023-05-12T13:06:50.340Z,16.66
2023-05-12T13:09:19.904Z,16.59
2023-05-12T13:11:47.982Z,16.33
2023-05-12T13:14:15.181Z,16.13
2023-05-12T13:16:42.854Z,16.86
2023-05-12T13:19:10.185Z,16.11
2023-05-12T13:21:38.002Z,15.78
2023-05-12T13:24:05.195Z,16.43
2023-05-12T13:26:32.276Z,16.12
2023-05-12T13:28:59.462Z,16.87
2023-05-12T13:31:27.065Z,16.94
2023-05-12T13:33:54.252Z,16.82
2023-05-12T13:36:21.377Z,17.33
2023-05-12T13:38:48.438Z,17.99
2023-05-12T13:41:15.987Z,17.20
2023-05-12T13:43:43.845Z,17.69
2023-05-12T13:46:11.058Z,18.56
2023-05-12T13:48:38.258Z,18.47
2023-05-12T13:51:05.726Z,16.41
2023-05-12T13:53:33.061Z,16.41
2023-05-12T13:56:15.765Z,16.03
2023-05-12T13:58:42.964Z,16.27
2023-05-12T14:01:10.435Z,15.72
2023-05-12T14:03:37.869Z,15.77
2023-05-12T14:06:05.455Z,15.04
2023-05-12T14:08:32.606Z,15.41
2023-05-12T14:10:59.970Z,15.55
2023-05-12T14:13:28.056Z,14.42
2023-05-12T14:15:55.488Z,15.06
2023-05-12T14:18:23.059Z,14.77
2023-05-12T14:20:50.582Z,15.02
2023-05-12T14:23:17.810Z,15.02
2023-05-12T14:25:44.971Z,14.53
2023-05-12T14:28:12.225Z,14.91
2023-05-12T14:30:39.849Z,14.99
2023-05-12T14:33:07.163Z,14.78
2023-05-12T14:35:34.302Z,14.37
2023-05-12T14:38:04.017Z,14.22
2023-05-12T14:40:31.149Z,14.23
2023-05-12T14:42:58.642Z,14.26
2023-05-12T14:45:26.761Z,14.16
2023-05-12T14:47:54.819Z,14.47
2023-05-12T14:50:22.795Z,13.59
2023-05-12T14:52:50.233Z,14.04
2023-05-12T14:55:17.657Z,14.38
2023-05-12T14:57:45.613Z,14.03
2023-05-12T15:00:15.270Z,13.76
2023-05-12T15:02:44.147Z,14.15
2023-05-12T15:05:13.576Z,13.71
2023-05-12T15:07:40.724Z,13.85
2023-05-12T15:10:08.404Z,13.83
2023-05-12T15:12:35.884Z,14.22
2023-05-12T15:15:05.257Z,13.93
2023-05-12T15:17:32.963Z,14.30
2023-05-12T15:20:00.197Z,14.14
2023-05-12T15:22:31.354Z,13.59
2023-05-12T15:24:59.669Z,14.06
2023-05-12T15:27:27.324Z,13.57
2023-05-12T15:29:54.529Z,13.74
2023-05-12T15:32:21.760Z,13.25
2023-05-12T15:34:48.978Z,13.79
2023-05-12T15:37:16.324Z,14.08
2023-05-12T15:39:43.988Z,14.04
2023-05-12T15:42:12.645Z,13.37
2023-05-12T15:44:41.683Z,13.85
2023-05-12T15:47:08.829Z,14.00
2023-05-12T15:49:35.983Z,13.85
2023-05-12T15:52:03.152Z,13.88
2023-05-12T15:54:31.086Z,13.85
2023-05-12T15:56:58.226Z,13.62
2023-05-12T15:59:26.234Z,13.97
2023-05-12T16:01:53.432Z,13.44
2023-05-12T16:04:20.568Z,13.49
2023-05-12T16:06:47.766Z,13.85
2023-05-12T16:09:14.874Z,13.78
2023-05-12T16:11:42.174Z,13.60
2023-05-12T16:14:09.472Z,13.69
2023-05-12T16:16:37.613Z,13.23
2023-05-12T16:19:04.895Z,13.53
2023-05-12T16:21:32.177Z,13.44
2023-05-12T16:23:59.298Z,13.55
2023-05-12T16:26:26.920Z,13.64
2023-05-12T16:28:54.110Z,13.57
2023-05-12T16:31:21.854Z,13.44
2023-05-12T16:33:48.962Z,13.15
2023-05-12T16:36:17.756Z,12.81
2023-05-12T16:38:44.977Z,12.34
2023-05-12T16:41:12.093Z,12.25
2023-05-12T16:43:39.209Z,12.33
2023-05-12T16:46:06.318Z,12.80
2023-05-12T16:48:34.565Z,12.68
2023-05-12T16:51:07.491Z,12.16
2023-05-12T16:53:35.191Z,12.77
2023-05-12T16:56:02.705Z,12.18
2023-05-12T16:58:33.516Z,12.65
2023-05-12T17:01:01.479Z,12.30
2023-05-12T17:03:29.434Z,12.16
2023-05-12T17:05:56.690Z,12.40
2023-05-12T17:08:24.759Z,12.57
2023-05-12T17:10:51.893Z,12.81
2023-05-12T17:13:19.076Z,12.87
2023-05-12T17:15:47.100Z,12.83
2023-05-12T17:18:14.310Z,12.69
2023-05-12T17:20:41.808Z,12.06
2023-05-12T17:23:09.343Z,11.57
2023-05-12T17:25:36.795Z,11.88
2023-05-12T17:28:04.718Z,12.11
2023-05-12T17:30:32.747Z,12.41
2023-05-12T17:33:00.699Z,11.94
2023-05-12T17:35:27.828Z,12.35
2023-05-12T17:37:55.690Z,12.24
2023-05-12T17:40:23.196Z,12.15
2023-05-12T17:42:50.531Z,12.33
2023-05-12T17:45:18.582Z,12.31
2023-05-12T17:47:46.286Z,12.40
2023-05-12T17:50:15.125Z,12.23
2023-05-12T17:52:43.652Z,12.14
2023-05-12T17:55:10.974Z,12.07
2023-05-12T17:57:38.301Z,12.10
2023-05-12T18:00:10.326Z,12.24
2023-05-12T18:02:44.801Z,11.90
2023-05-12T18:05:12.596Z,11.92
2023-05-12T18:07:39.992Z,12.28
2023-05-12T18:10:08.967Z,12.29
2023-05-12T18:12:37.074Z,12.38
2023-05-12T18:15:05.488Z,12.30
2023-05-12T18:17:32.877Z,12.14
2023-05-12T18:20:00.437Z,12.08
2023-05-12T18:22:27.596Z,12.01
2023-05-12T18:24:55.181Z,12.15
2023-05-12T18:27:22.239Z,11.90
2023-05-12T18:29:49.385Z,12.09
2023-05-12T18:32:17.042Z,12.15
2023-05-12T18:34:45.615Z,11.93
2023-05-12T18:37:15.734Z,12.09
2023-05-12T18:39:43.398Z,11.96
2023-05-12T18:42:11.316Z,11.75
2023-05-12T18:44:41.308Z,11.99
2023-05-12T18:47:09.457Z,12.14
2023-05-12T18:49:37.711Z,11.36
2023-05-12T18:52:05.109Z,11.73
2023-05-12T18:54:32.174Z,11.88
2023-05-12T18:56:59.324Z,11.74
2023-05-12T18:59:26.996Z,11.60
2023-05-12T19:01:54.207Z,10.99
2023-05-12T19:04:22.110Z,11.18
2023-05-12T19:06:49.426Z,10.86
2023-05-12T19:09:16.542Z,10.74
2023-05-12T19:11:44.415Z,11.15
2023-05-12T19:14:12.048Z,11.22
2023-05-12T19:16:40.251Z,10.80
2023-05-12T19:19:07.585Z,10.71
2023-05-12T19:21:35.027Z,10.93
2023-05-12T19:24:02.262Z,10.68
2023-05-12T19:26:29.335Z,10.59
2023-05-12T19:28:56.415Z,10.63
2023-05-12T19:31:23.570Z,10.52
2023-05-12T19:33:52.306Z,10.51
2023-05-12T19:36:19.445Z,10.57
2023-05-12T19:38:46.722Z,10.57
2023-05-12T19:41:13.787Z,10.39
2023-05-12T19:43:41.260Z,10.22
2023-05-12T19:46:08.777Z,10.11
2023-05-12T19:48:36.188Z,9.96
2023-05-12T19:51:03.568Z,9.84
2023-05-12T19:53:30.852Z,9.70
2023-05-12T19:55:58.120Z,9.56
2023-05-12T19:58:26.729Z,9.46
2023-05-12T20:00:54.954Z,9.32
2023-05-12T20:03:22.277Z,9.18
2023-05-12T20:05:49.612Z,9.08
2023-05-12T20:08:16.687Z,8.95
2023-05-12T20:10:43.762Z,8.88
2023-05-12T20:13:11.871Z,8.90
2023-05-12T20:15:40.178Z,8.94
2023-05-12T20:18:07.344Z,8.92
2023-05-12T20:20:34.433Z,8.84
2023-05-12T20:23:01.663Z,8.69
2023-05-12T20:25:31.842Z,8.54
2023-05-12T20:27:59.424Z,8.42
2023-05-12T20:30:26.903Z,8.32
2023-05-12T20:32:54.101Z,8.36
2023-05-12T20:35:21.617Z,8.33
2023-05-12T20:37:49.040Z,8.30
2023-05-12T20:40:16.273Z,8.23
2023-05-12T20:42:48.587Z,8.26
2023-05-12T20:45:16.497Z,8.30
2023-05-12T20:47:43.630Z,8.29
2023-05-12T20:50:12.597Z,8.26
2023-05-12T20:52:42.585Z,8.19
2023-05-12T20:55:10.258Z,7.99
2023-05-12T20:57:37.977Z,7.94
2023-05-12T21:00:05.655Z,7.84
2023-05-12T21:02:32.778Z,7.80
2023-05-12T21:04:59.914Z,7.76
2023-05-12T21:07:26.996Z,7.78
2023-05-12T21:09:54.099Z,7.80
2023-05-12T21:12:21.188Z,7.81
2023-05-12T21:14:48.248Z,7.82
2023-05-12T21:17:16.563Z,7.85
2023-05-12T21:19:44.250Z,7.76
2023-05-12T21:22:11.563Z,7.67
2023-05-12T21:24:39.620Z,7.73
2023-05-12T21:27:08.409Z,8.07
2023-05-12T21:29:36.574Z,8.13
2023-05-12T21:32:03.934Z,8.24
2023-05-12T21:34:33.688Z,8.31
2023-05-12T21:37:01.033Z,8.28
2023-05-12T21:39:28.430Z,8.26
2023-05-12T21:41:55.609Z,8.24
2023-05-12T21:44:22.694Z,8.28
2023-05-12T21:46:49.923Z,8.19
2023-05-12T21:49:17.128Z,8.08
2023-05-12T21:51:44.235Z,8.08
2023-05-12T21:54:12.491Z,8.05
2023-05-12T21:56:39.600Z,8.04
2023-05-12T21:59:06.877Z,8.05
2023-05-12T22:01:34.029Z,8.27
2023-05-12T22:04:01.227Z,8.35
2023-05-12T22:06:28.378Z,8.47
2023-05-12T22:08:55.826Z,8.61
2023-05-12T22:11:23.702Z,8.58
2023-05-12T22:13:51.279Z,8.49
2023-05-12T22:16:23.608Z,8.55
2023-05-12T22:18:53.189Z,8.58
2023-05-12T22:21:20.632Z,8.61
2023-05-12T22:23:47.727Z,8.34
2023-05-12T22:26:15.868Z,8.12
2023-05-12T22:28:43.037Z,8.17
2023-05-12T22:31:10.163Z,8.26
2023-05-12T22:33:37.290Z,8.12
2023-05-12T22:36:04.568Z,8.15
2023-05-12T22:38:31.760Z,8.14
2023-05-12T22:40:59.031Z,8.19
2023-05-12T22:43:26.479Z,8.26
2023-05-12T22:45:55.944Z,8.26
2023-05-12T22:48:23.324Z,8.26
2023-05-12T22:50:53.988Z,8.27
2023-05-12T22:53:21.127Z,8.31
2023-05-12T22:55:48.452Z,8.14
2023-05-12T22:58:16.251Z,8.00
2023-05-12T23:00:43.357Z,7.88
2023-05-12T23:03:10.512Z,7.66
2023-05-12T23:05:37.700Z,7.64
2023-05-12T23:08:04.817Z,7.31
2023-05-12T23:10:31.919Z,6.91
2023-05-12T23:12:59.080Z,6.71
2023-05-12T23:15:26.217Z,6.79
2023-05-12T23:17:53.369Z,6.94
2023-05-12T23:20:21.261Z,6.88
2023-05-12T23:22:48.545Z,6.61
2023-05-12T23:25:15.800Z,6.85
2023-05-12T23:27:42.944Z,6.29
2023-05-12T23:30:10.345Z,6.01
2023-05-12T23:32:37.510Z,6.12
2023-05-12T23:35:05.020Z,5.94
2023-05-12T23:37:32.249Z,5.84
2023-05-12T23:39:59.491Z,5.75
2023-05-12T23:42:26.610Z,5.66
2023-05-12T23:44:53.821Z,5.61
2023-05-12T23:47:21.008Z,5.64
2023-05-12T23:49:48.088Z,5.69
2023-05-12T23:52:15.127Z,5.87
2023-05-12T23:54:44.421Z,6.01
2023-05-12T23:57:11.547Z,6.04
2023-05-12T23:59:39.037Z,6.14
